sensor_id;sensor_type;location;lat;lon;timestamp;P1;durP1;ratioP1;P2;durP2;ratioP2
10088;SDS011;51898;49.864;8.550;2023-01-26T00:00:40;30.90;;;14.67;;
10088;SDS011;51898;49.864;8.550;2023-01-26T00:03:42;24.93;;;13.10;;
10088;SDS011;51898;49.864;8.550;2023-01-26T00:06:44;33.10;;;14.93;;
10088;SDS011;51898;49.864;8.550;2023-01-26T00:09:46;27.40;;;13.90;;
10088;SDS011;51898;49.864;8.550;2023-01-26T00:12:47;32.53;;;15.67;;
10088;SDS011;51898;49.864;8.550;2023-01-26T00:15:49;33.30;;;14.90;;
10088;SDS011;51898;49.864;8.550;2023-01-26T00:18:51;26.63;;;13.80;;
10088;SDS011;51898;49.864;8.550;2023-01-26T00:21:52;25.23;;;14.70;;
10088;SDS011;51898;49.864;8.550;2023-01-26T00:24:54;24.60;;;13.47;;
10088;SDS011;51898;49.864;8.550;2023-01-26T00:27:56;28.43;;;13.80;;
10088;SDS011;51898;49.864;8.550;2023-01-26T00:31:02;31.47;;;13.77;;
10088;SDS011;51898;49.864;8.550;2023-01-26T00:34:05;30.07;;;14.57;;
10088;SDS011;51898;49.864;8.550;2023-01-26T00:37:06;29.20;;;14.57;;
10088;SDS011;51898;49.864;8.550;2023-01-26T00:40:09;28.87;;;14.23;;
10088;SDS011;51898;49.864;8.550;2023-01-26T00:43:11;28.50;;;14.57;;
10088;SDS011;51898;49.864;8.550;2023-01-26T00:46:13;30.73;;;14.30;;
10088;SDS011;51898;49.864;8.550;2023-01-26T00:49:15;30.30;;;14.87;;
10088;SDS011;51898;49.864;8.550;2023-01-26T00:52:16;28.40;;;14.57;;
10088;SDS011;51898;49.864;8.550;2023-01-26T00:55:18;26.30;;;13.30;;
10088;SDS011;51898;49.864;8.550;2023-01-26T00:58:20;28.50;;;14.83;;
10088;SDS011;51898;49.864;8.550;2023-01-26T01:01:22;26.07;;;13.97;;
10088;SDS011;51898;49.864;8.550;2023-01-26T01:04:24;27.50;;;13.73;;
10088;SDS011;51898;49.864;8.550;2023-01-26T01:07:25;27.67;;;14.97;;
10088;SDS011;51898;49.864;8.550;2023-01-26T01:10:27;29.80;;;14.53;;
10088;SDS011;51898;49.864;8.550;2023-01-26T01:13:29;32.97;;;13.63;;
10088;SDS011;51898;49.864;8.550;2023-01-26T01:16:31;28.00;;;14.40;;
10088;SDS011;51898;49.864;8.550;2023-01-26T01:19:32;32.13;;;14.67;;
10088;SDS011;51898;49.864;8.550;2023-01-26T01:22:34;28.47;;;13.00;;
10088;SDS011;51898;49.864;8.550;2023-01-26T01:25:36;31.00;;;14.50;;
10088;SDS011;51898;49.864;8.550;2023-01-26T01:28:38;29.67;;;14.00;;
10088;SDS011;51898;49.864;8.550;2023-01-26T01:31:40;23.90;;;11.60;;
10088;SDS011;51898;49.864;8.550;2023-01-26T01:34:45;22.20;;;11.57;;
10088;SDS011;51898;49.864;8.550;2023-01-26T01:37:47;31.17;;;14.90;;
10088;SDS011;51898;49.864;8.550;2023-01-26T01:40:49;27.70;;;13.40;;
10088;SDS011;51898;49.864;8.550;2023-01-26T01:43:50;24.40;;;13.40;;
10088;SDS011;51898;49.864;8.550;2023-01-26T01:47:25;24.00;;;12.67;;
10088;SDS011;51898;49.864;8.550;2023-01-26T01:50:26;24.80;;;13.40;;
10088;SDS011;51898;49.864;8.550;2023-01-26T01:53:34;28.03;;;11.47;;
10088;SDS011;51898;49.864;8.550;2023-01-26T01:56:40;23.33;;;12.80;;
10088;SDS011;51898;49.864;8.550;2023-01-26T01:59:48;23.70;;;12.30;;
10088;SDS011;51898;49.864;8.550;2023-01-26T02:03:04;25.30;;;13.53;;
10088;SDS011;51898;49.864;8.550;2023-01-26T02:06:22;23.17;;;12.87;;
10088;SDS011;51898;49.864;8.550;2023-01-26T02:09:32;24.90;;;12.23;;
10088;SDS011;51898;49.864;8.550;2023-01-26T02:12:55;25.73;;;12.00;;
10088;SDS011;51898;49.864;8.550;2023-01-26T02:15:58;28.20;;;11.63;;
10088;SDS011;51898;49.864;8.550;2023-01-26T02:19:00;22.67;;;12.00;;
10088;SDS011;51898;49.864;8.550;2023-01-26T02:22:04;23.70;;;11.90;;
10088;SDS011;51898;49.864;8.550;2023-01-26T02:25:15;21.73;;;12.00;;
10088;SDS011;51898;49.864;8.550;2023-01-26T02:28:25;20.03;;;10.80;;
10088;SDS011;51898;49.864;8.550;2023-01-26T02:31:27;23.37;;;10.90;;
10088;SDS011;51898;49.864;8.550;2023-01-26T02:34:30;24.70;;;11.73;;
10088;SDS011;51898;49.864;8.550;2023-01-26T02:37:32;22.53;;;10.40;;
10088;SDS011;51898;49.864;8.550;2023-01-26T02:44:07;19.80;;;10.87;;
10088;SDS011;51898;49.864;8.550;2023-01-26T02:47:12;26.30;;;11.93;;
10088;SDS011;51898;49.864;8.550;2023-01-26T02:50:15;23.73;;;11.20;;
10088;SDS011;51898;49.864;8.550;2023-01-26T02:53:17;20.97;;;10.03;;
10088;SDS011;51898;49.864;8.550;2023-01-26T02:56:19;28.23;;;11.60;;
10088;SDS011;51898;49.864;8.550;2023-01-26T02:59:20;21.70;;;11.50;;
10088;SDS011;51898;49.864;8.550;2023-01-26T03:02:22;24.13;;;11.93;;
10088;SDS011;51898;49.864;8.550;2023-01-26T03:05:24;27.20;;;12.90;;
10088;SDS011;51898;49.864;8.550;2023-01-26T03:08:27;24.27;;;11.37;;
10088;SDS011;51898;49.864;8.550;2023-01-26T03:11:28;27.47;;;12.80;;
10088;SDS011;51898;49.864;8.550;2023-01-26T03:14:42;28.37;;;12.40;;
10088;SDS011;51898;49.864;8.550;2023-01-26T03:17:43;23.63;;;13.37;;
10088;SDS011;51898;49.864;8.550;2023-01-26T03:20:45;28.00;;;13.33;;
10088;SDS011;51898;49.864;8.550;2023-01-26T03:24:10;26.13;;;12.73;;
10088;SDS011;51898;49.864;8.550;2023-01-26T03:27:39;28.10;;;13.23;;
10088;SDS011;51898;49.864;8.550;2023-01-26T03:30:42;26.37;;;13.37;;
10088;SDS011;51898;49.864;8.550;2023-01-26T03:33:44;25.00;;;10.63;;
10088;SDS011;51898;49.864;8.550;2023-01-26T03:36:46;28.67;;;13.07;;
10088;SDS011;51898;49.864;8.550;2023-01-26T03:39:49;28.87;;;14.30;;
10088;SDS011;51898;49.864;8.550;2023-01-26T03:43:10;19.23;;;11.77;;
10088;SDS011;51898;49.864;8.550;2023-01-26T03:46:30;24.13;;;11.90;;
10088;SDS011;51898;49.864;8.550;2023-01-26T03:49:50;20.00;;;10.33;;
10088;SDS011;51898;49.864;8.550;2023-01-26T03:53:14;28.47;;;14.00;;
10088;SDS011;51898;49.864;8.550;2023-01-26T03:56:36;27.10;;;12.37;;
10088;SDS011;51898;49.864;8.550;2023-01-26T03:59:37;24.40;;;11.13;;
10088;SDS011;51898;49.864;8.550;2023-01-26T04:02:39;21.37;;;11.13;;
10088;SDS011;51898;49.864;8.550;2023-01-26T04:06:00;21.60;;;10.10;;
10088;SDS011;51898;49.864;8.550;2023-01-26T04:09:20;20.13;;;9.97;;
10088;SDS011;51898;49.864;8.550;2023-01-26T04:12:22;15.97;;;8.80;;
10088;SDS011;51898;49.864;8.550;2023-01-26T04:15:24;18.27;;;9.43;;
10088;SDS011;51898;49.864;8.550;2023-01-26T04:18:44;17.00;;;8.63;;
10088;SDS011;51898;49.864;8.550;2023-01-26T04:22:05;11.83;;;7.77;;
10088;SDS011;51898;49.864;8.550;2023-01-26T04:25:06;17.30;;;9.00;;
10088;SDS011;51898;49.864;8.550;2023-01-26T04:28:09;15.10;;;9.63;;
10088;SDS011;51898;49.864;8.550;2023-01-26T04:31:10;18.00;;;9.03;;
10088;SDS011;51898;49.864;8.550;2023-01-26T04:34:13;17.37;;;9.20;;
10088;SDS011;51898;49.864;8.550;2023-01-26T04:37:15;14.83;;;8.20;;
10088;SDS011;51898;49.864;8.550;2023-01-26T04:40:17;17.00;;;9.70;;
10088;SDS011;51898;49.864;8.550;2023-01-26T04:43:18;11.93;;;7.13;;
10088;SDS011;51898;49.864;8.550;2023-01-26T04:46:20;14.87;;;8.20;;
10088;SDS011;51898;49.864;8.550;2023-01-26T04:49:22;23.23;;;7.83;;
10088;SDS011;51898;49.864;8.550;2023-01-26T04:52:23;18.77;;;10.83;;
10088;SDS011;51898;49.864;8.550;2023-01-26T04:55:25;15.03;;;8.60;;
10088;SDS011;51898;49.864;8.550;2023-01-26T04:58:27;13.20;;;7.70;;
10088;SDS011;51898;49.864;8.550;2023-01-26T05:01:28;13.17;;;7.10;;
10088;SDS011;51898;49.864;8.550;2023-01-26T05:04:30;14.40;;;7.47;;
10088;SDS011;51898;49.864;8.550;2023-01-26T05:07:32;9.67;;;5.77;;
10088;SDS011;51898;49.864;8.550;2023-01-26T05:10:34;11.50;;;6.63;;
10088;SDS011;51898;49.864;8.550;2023-01-26T05:13:36;9.47;;;5.83;;
10088;SDS011;51898;49.864;8.550;2023-01-26T05:16:37;10.73;;;6.07;;
10088;SDS011;51898;49.864;8.550;2023-01-26T05:19:39;9.83;;;5.97;;
10088;SDS011;51898;49.864;8.550;2023-01-26T05:22:41;9.60;;;6.17;;
10088;SDS011;51898;49.864;8.550;2023-01-26T05:25:43;7.97;;;4.90;;
10088;SDS011;51898;49.864;8.550;2023-01-26T05:28:44;10.70;;;5.30;;
10088;SDS011;51898;49.864;8.550;2023-01-26T05:31:46;9.57;;;5.60;;
10088;SDS011;51898;49.864;8.550;2023-01-26T05:34:48;10.60;;;5.80;;
10088;SDS011;51898;49.864;8.550;2023-01-26T05:37:49;11.13;;;6.77;;
10088;SDS011;51898;49.864;8.550;2023-01-26T05:40:51;12.43;;;6.63;;
10088;SDS011;51898;49.864;8.550;2023-01-26T05:43:53;13.50;;;6.67;;
10088;SDS011;51898;49.864;8.550;2023-01-26T05:46:54;8.73;;;6.10;;
10088;SDS011;51898;49.864;8.550;2023-01-26T05:49:56;12.27;;;7.10;;
10088;SDS011;51898;49.864;8.550;2023-01-26T05:52:58;10.73;;;6.40;;
10088;SDS011;51898;49.864;8.550;2023-01-26T05:56:00;10.00;;;6.10;;
10088;SDS011;51898;49.864;8.550;2023-01-26T05:59:02;7.70;;;4.90;;
10088;SDS011;51898;49.864;8.550;2023-01-26T06:02:04;9.73;;;5.03;;
10088;SDS011;51898;49.864;8.550;2023-01-26T06:05:06;8.30;;;4.60;;
10088;SDS011;51898;49.864;8.550;2023-01-26T06:08:08;9.77;;;5.07;;
10088;SDS011;51898;49.864;8.550;2023-01-26T06:11:09;9.10;;;6.00;;
10088;SDS011;51898;49.864;8.550;2023-01-26T06:14:11;9.80;;;4.87;;
10088;SDS011;51898;49.864;8.550;2023-01-26T06:17:13;9.57;;;4.97;;
10088;SDS011;51898;49.864;8.550;2023-01-26T06:20:16;6.83;;;4.97;;
10088;SDS011;51898;49.864;8.550;2023-01-26T06:23:18;13.83;;;6.40;;
10088;SDS011;51898;49.864;8.550;2023-01-26T06:26:20;7.70;;;5.10;;
10088;SDS011;51898;49.864;8.550;2023-01-26T06:29:21;9.27;;;5.73;;
10088;SDS011;51898;49.864;8.550;2023-01-26T06:32:23;9.43;;;6.27;;
10088;SDS011;51898;49.864;8.550;2023-01-26T06:35:25;11.67;;;6.50;;
10088;SDS011;51898;49.864;8.550;2023-01-26T06:38:27;10.37;;;6.50;;
10088;SDS011;51898;49.864;8.550;2023-01-26T06:41:29;9.40;;;5.73;;
10088;SDS011;51898;49.864;8.550;2023-01-26T06:44:30;9.60;;;6.80;;
10088;SDS011;51898;49.864;8.550;2023-01-26T06:47:32;9.30;;;5.80;;
10088;SDS011;51898;49.864;8.550;2023-01-26T06:50:36;17.67;;;6.80;;
10088;SDS011;51898;49.864;8.550;2023-01-26T06:53:42;15.40;;;7.40;;
10088;SDS011;51898;49.864;8.550;2023-01-26T06:56:47;13.90;;;7.73;;
10088;SDS011;51898;49.864;8.550;2023-01-26T06:59:49;12.47;;;6.93;;
10088;SDS011;51898;49.864;8.550;2023-01-26T07:02:51;13.53;;;7.37;;
10088;SDS011;51898;49.864;8.550;2023-01-26T07:05:53;10.03;;;5.90;;
10088;SDS011;51898;49.864;8.550;2023-01-26T07:08:54;13.07;;;7.30;;
10088;SDS011;51898;49.864;8.550;2023-01-26T07:11:56;13.77;;;7.63;;
10088;SDS011;51898;49.864;8.550;2023-01-26T07:14:58;13.37;;;8.43;;
10088;SDS011;51898;49.864;8.550;2023-01-26T07:17:59;14.80;;;7.63;;
10088;SDS011;51898;49.864;8.550;2023-01-26T07:21:02;16.67;;;8.00;;
10088;SDS011;51898;49.864;8.550;2023-01-26T07:24:05;15.23;;;8.77;;
10088;SDS011;51898;49.864;8.550;2023-01-26T07:27:08;18.70;;;9.43;;
10088;SDS011;51898;49.864;8.550;2023-01-26T07:30:10;18.80;;;8.60;;
10088;SDS011;51898;49.864;8.550;2023-01-26T07:33:14;13.00;;;7.53;;
10088;SDS011;51898;49.864;8.550;2023-01-26T07:36:16;14.37;;;8.40;;
10088;SDS011;51898;49.864;8.550;2023-01-26T07:39:17;17.37;;;9.17;;
10088;SDS011;51898;49.864;8.550;2023-01-26T07:42:19;16.37;;;8.57;;
10088;SDS011;51898;49.864;8.550;2023-01-26T07:45:20;15.20;;;8.43;;
10088;SDS011;51898;49.864;8.550;2023-01-26T07:48:22;15.20;;;8.40;;
10088;SDS011;51898;49.864;8.550;2023-01-26T07:51:25;14.87;;;8.13;;
10088;SDS011;51898;49.864;8.550;2023-01-26T07:54:26;15.00;;;8.37;;
10088;SDS011;51898;49.864;8.550;2023-01-26T07:57:28;12.90;;;7.93;;
10088;SDS011;51898;49.864;8.550;2023-01-26T08:00:30;11.43;;;7.63;;
10088;SDS011;51898;49.864;8.550;2023-01-26T08:03:31;11.23;;;7.30;;
10088;SDS011;51898;49.864;8.550;2023-01-26T08:06:33;15.60;;;7.60;;
10088;SDS011;51898;49.864;8.550;2023-01-26T08:09:35;12.90;;;8.30;;
10088;SDS011;51898;49.864;8.550;2023-01-26T08:12:36;17.10;;;7.50;;
10088;SDS011;51898;49.864;8.550;2023-01-26T08:15:41;16.33;;;9.00;;
10088;SDS011;51898;49.864;8.550;2023-01-26T08:18:43;19.10;;;8.50;;
10088;SDS011;51898;49.864;8.550;2023-01-26T08:21:46;16.00;;;10.07;;
10088;SDS011;51898;49.864;8.550;2023-01-26T08:24:47;14.87;;;9.37;;
10088;SDS011;51898;49.864;8.550;2023-01-26T08:27:49;17.77;;;9.03;;
10088;SDS011;51898;49.864;8.550;2023-01-26T08:30:51;17.23;;;10.70;;
10088;SDS011;51898;49.864;8.550;2023-01-26T08:33:54;16.77;;;8.50;;
10088;SDS011;51898;49.864;8.550;2023-01-26T08:36:56;15.87;;;10.27;;
10088;SDS011;51898;49.864;8.550;2023-01-26T08:39:57;15.97;;;9.67;;
10088;SDS011;51898;49.864;8.550;2023-01-26T08:42:59;17.30;;;9.67;;
10088;SDS011;51898;49.864;8.550;2023-01-26T08:46:02;18.50;;;10.37;;
10088;SDS011;51898;49.864;8.550;2023-01-26T08:49:04;14.93;;;9.27;;
10088;SDS011;51898;49.864;8.550;2023-01-26T08:52:06;15.57;;;9.80;;
10088;SDS011;51898;49.864;8.550;2023-01-26T08:55:08;17.43;;;9.73;;
10088;SDS011;51898;49.864;8.550;2023-01-26T08:58:10;17.00;;;9.20;;
10088;SDS011;51898;49.864;8.550;2023-01-26T09:01:12;14.30;;;8.63;;
10088;SDS011;51898;49.864;8.550;2023-01-26T09:04:15;17.90;;;10.03;;
10088;SDS011;51898;49.864;8.550;2023-01-26T09:07:17;16.33;;;9.60;;
10088;SDS011;51898;49.864;8.550;2023-01-26T09:10:18;19.07;;;9.30;;
10088;SDS011;51898;49.864;8.550;2023-01-26T09:13:20;18.30;;;8.80;;
10088;SDS011;51898;49.864;8.550;2023-01-26T09:16:22;16.20;;;9.67;;
10088;SDS011;51898;49.864;8.550;2023-01-26T09:19:25;14.37;;;8.60;;
10088;SDS011;51898;49.864;8.550;2023-01-26T09:22:26;18.17;;;10.37;;
10088;SDS011;51898;49.864;8.550;2023-01-26T09:25:28;17.73;;;9.60;;
10088;SDS011;51898;49.864;8.550;2023-01-26T09:28:30;16.40;;;9.63;;
10088;SDS011;51898;49.864;8.550;2023-01-26T09:31:31;18.40;;;9.43;;
10088;SDS011;51898;49.864;8.550;2023-01-26T09:34:33;14.13;;;9.00;;
10088;SDS011;51898;49.864;8.550;2023-01-26T09:37:35;11.43;;;7.10;;
10088;SDS011;51898;49.864;8.550;2023-01-26T09:44:01;15.00;;;8.77;;
10088;SDS011;51898;49.864;8.550;2023-01-26T09:47:12;14.33;;;8.30;;
10088;SDS011;51898;49.864;8.550;2023-01-26T09:53:37;13.90;;;9.60;;
10088;SDS011;51898;49.864;8.550;2023-01-26T09:56:59;15.57;;;9.60;;
10088;SDS011;51898;49.864;8.550;2023-01-26T10:03:10;13.53;;;9.60;;
10088;SDS011;51898;49.864;8.550;2023-01-26T10:06:33;13.67;;;7.63;;
10088;SDS011;51898;49.864;8.550;2023-01-26T10:09:38;13.20;;;7.37;;
10088;SDS011;51898;49.864;8.550;2023-01-26T10:12:46;13.13;;;8.30;;
10088;SDS011;51898;49.864;8.550;2023-01-26T10:15:59;10.80;;;7.30;;
10088;SDS011;51898;49.864;8.550;2023-01-26T10:22:41;12.47;;;8.07;;
10088;SDS011;51898;49.864;8.550;2023-01-26T10:25:45;12.10;;;7.97;;
10088;SDS011;51898;49.864;8.550;2023-01-26T10:28:50;9.70;;;7.03;;
10088;SDS011;51898;49.864;8.550;2023-01-26T10:31:53;11.23;;;7.50;;
10088;SDS011;51898;49.864;8.550;2023-01-26T10:34:55;11.93;;;8.27;;
10088;SDS011;51898;49.864;8.550;2023-01-26T10:37:57;12.70;;;7.73;;
10088;SDS011;51898;49.864;8.550;2023-01-26T10:41:03;16.40;;;8.27;;
10088;SDS011;51898;49.864;8.550;2023-01-26T10:44:21;12.00;;;7.90;;
10088;SDS011;51898;49.864;8.550;2023-01-26T10:47:29;11.13;;;7.73;;
10088;SDS011;51898;49.864;8.550;2023-01-26T10:50:31;12.17;;;8.53;;
10088;SDS011;51898;49.864;8.550;2023-01-26T10:53:32;13.10;;;7.90;;
10088;SDS011;51898;49.864;8.550;2023-01-26T10:56:34;13.80;;;8.40;;
10088;SDS011;51898;49.864;8.550;2023-01-26T10:59:38;12.57;;;8.50;;
10088;SDS011;51898;49.864;8.550;2023-01-26T11:02:54;15.00;;;8.20;;
10088;SDS011;51898;49.864;8.550;2023-01-26T11:06:05;9.57;;;7.10;;
10088;SDS011;51898;49.864;8.550;2023-01-26T11:12:18;12.43;;;7.63;;
10088;SDS011;51898;49.864;8.550;2023-01-26T11:15:22;11.80;;;7.90;;
10088;SDS011;51898;49.864;8.550;2023-01-26T11:22:01;14.83;;;8.40;;
10088;SDS011;51898;49.864;8.550;2023-01-26T11:25:14;11.47;;;6.73;;
10088;SDS011;51898;49.864;8.550;2023-01-26T11:28:31;11.33;;;8.00;;
10088;SDS011;51898;49.864;8.550;2023-01-26T11:31:59;12.90;;;8.43;;
10088;SDS011;51898;49.864;8.550;2023-01-26T11:35:27;12.87;;;8.23;;
10088;SDS011;51898;49.864;8.550;2023-01-26T11:38:40;12.97;;;7.10;;
10088;SDS011;51898;49.864;8.550;2023-01-26T11:42:09;10.63;;;7.10;;
10088;SDS011;51898;49.864;8.550;2023-01-26T11:49:21;12.43;;;8.67;;
10088;SDS011;51898;49.864;8.550;2023-01-26T11:58:54;10.37;;;7.70;;
10088;SDS011;51898;49.864;8.550;2023-01-26T12:02:09;12.93;;;8.10;;
10088;SDS011;51898;49.864;8.550;2023-01-26T12:05:53;10.80;;;7.57;;
10088;SDS011;51898;49.864;8.550;2023-01-26T12:12:28;13.70;;;8.00;;
10088;SDS011;51898;49.864;8.550;2023-01-26T12:15:38;11.00;;;7.37;;
10088;SDS011;51898;49.864;8.550;2023-01-26T12:18:55;12.30;;;8.20;;
10088;SDS011;51898;49.864;8.550;2023-01-26T12:22:12;12.67;;;8.70;;
10088;SDS011;51898;49.864;8.550;2023-01-26T12:25:35;13.43;;;8.80;;
10088;SDS011;51898;49.864;8.550;2023-01-26T12:32:00;11.07;;;7.60;;
10088;SDS011;51898;49.864;8.550;2023-01-26T12:35:09;12.43;;;8.20;;
10088;SDS011;51898;49.864;8.550;2023-01-26T12:38:14;11.80;;;7.80;;
10088;SDS011;51898;49.864;8.550;2023-01-26T12:41:30;15.60;;;9.53;;
10088;SDS011;51898;49.864;8.550;2023-01-26T12:44:58;9.67;;;7.27;;
10088;SDS011;51898;49.864;8.550;2023-01-26T12:48:19;12.93;;;8.10;;
10088;SDS011;51898;49.864;8.550;2023-01-26T12:51:27;12.27;;;8.30;;
10088;SDS011;51898;49.864;8.550;2023-01-26T12:54:36;9.90;;;7.13;;
10088;SDS011;51898;49.864;8.550;2023-01-26T12:57:48;15.50;;;7.80;;
10088;SDS011;51898;49.864;8.550;2023-01-26T13:01:16;13.00;;;7.67;;
10088;SDS011;51898;49.864;8.550;2023-01-26T13:04:18;11.33;;;7.70;;
10088;SDS011;51898;49.864;8.550;2023-01-26T13:10:44;10.50;;;7.47;;
10088;SDS011;51898;49.864;8.550;2023-01-26T13:13:53;13.63;;;8.40;;
10088;SDS011;51898;49.864;8.550;2023-01-26T13:16:56;10.57;;;8.33;;
10088;SDS011;51898;49.864;8.550;2023-01-26T13:23:43;12.17;;;8.50;;
10088;SDS011;51898;49.864;8.550;2023-01-26T13:26:46;12.43;;;8.03;;
10088;SDS011;51898;49.864;8.550;2023-01-26T13:29:50;13.43;;;8.30;;
10088;SDS011;51898;49.864;8.550;2023-01-26T13:36:12;14.10;;;8.97;;
10088;SDS011;51898;49.864;8.550;2023-01-26T13:39:24;11.50;;;8.33;;
10088;SDS011;51898;49.864;8.550;2023-01-26T13:42:37;12.60;;;8.27;;
10088;SDS011;51898;49.864;8.550;2023-01-26T13:49:36;11.50;;;8.30;;
10088;SDS011;51898;49.864;8.550;2023-01-26T13:52:40;13.10;;;8.73;;
10088;SDS011;51898;49.864;8.550;2023-01-26T13:55:43;11.53;;;7.70;;
10088;SDS011;51898;49.864;8.550;2023-01-26T13:58:44;13.90;;;7.97;;
10088;SDS011;51898;49.864;8.550;2023-01-26T14:01:47;13.30;;;8.60;;
10088;SDS011;51898;49.864;8.550;2023-01-26T14:04:51;16.10;;;8.87;;
10088;SDS011;51898;49.864;8.550;2023-01-26T14:07:55;14.77;;;8.07;;
10088;SDS011;51898;49.864;8.550;2023-01-26T14:10:58;12.77;;;7.60;;
10088;SDS011;51898;49.864;8.550;2023-01-26T14:14:02;15.87;;;9.40;;
10088;SDS011;51898;49.864;8.550;2023-01-26T14:17:07;16.20;;;8.63;;
10088;SDS011;51898;49.864;8.550;2023-01-26T14:23:34;14.33;;;8.13;;
10088;SDS011;51898;49.864;8.550;2023-01-26T14:26:37;14.83;;;8.90;;
10088;SDS011;51898;49.864;8.550;2023-01-26T14:29:41;19.50;;;10.07;;
10088;SDS011;51898;49.864;8.550;2023-01-26T14:32:42;15.30;;;9.37;;
10088;SDS011;51898;49.864;8.550;2023-01-26T14:35:58;14.50;;;8.57;;
10088;SDS011;51898;49.864;8.550;2023-01-26T14:39:02;15.23;;;8.50;;
10088;SDS011;51898;49.864;8.550;2023-01-26T14:42:35;16.07;;;9.30;;
10088;SDS011;51898;49.864;8.550;2023-01-26T14:45:39;14.40;;;8.30;;
10088;SDS011;51898;49.864;8.550;2023-01-26T14:48:54;17.20;;;9.73;;
10088;SDS011;51898;49.864;8.550;2023-01-26T14:52:00;16.07;;;8.90;;
10088;SDS011;51898;49.864;8.550;2023-01-26T14:55:04;15.23;;;8.90;;
10088;SDS011;51898;49.864;8.550;2023-01-26T14:58:26;19.17;;;8.70;;
10088;SDS011;51898;49.864;8.550;2023-01-26T15:01:31;19.03;;;9.50;;
10088;SDS011;51898;49.864;8.550;2023-01-26T15:04:35;16.40;;;8.37;;
10088;SDS011;51898;49.864;8.550;2023-01-26T15:10:42;17.33;;;8.90;;
10088;SDS011;51898;49.864;8.550;2023-01-26T15:13:53;19.60;;;11.40;;
10088;SDS011;51898;49.864;8.550;2023-01-26T15:16:56;39.90;;;17.43;;
10088;SDS011;51898;49.864;8.550;2023-01-26T15:19:58;29.37;;;14.37;;
10088;SDS011;51898;49.864;8.550;2023-01-26T15:22:59;31.90;;;23.63;;
10088;SDS011;51898;49.864;8.550;2023-01-26T15:29:16;17.80;;;9.30;;
10088;SDS011;51898;49.864;8.550;2023-01-26T15:32:28;18.60;;;9.00;;
10088;SDS011;51898;49.864;8.550;2023-01-26T15:35:33;19.93;;;10.63;;
10088;SDS011;51898;49.864;8.550;2023-01-26T15:38:35;23.13;;;11.30;;
10088;SDS011;51898;49.864;8.550;2023-01-26T15:41:37;24.10;;;10.17;;
10088;SDS011;51898;49.864;8.550;2023-01-26T15:44:39;22.77;;;10.90;;
10088;SDS011;51898;49.864;8.550;2023-01-26T15:47:42;18.00;;;9.53;;
10088;SDS011;51898;49.864;8.550;2023-01-26T15:50:44;23.50;;;12.37;;
10088;SDS011;51898;49.864;8.550;2023-01-26T15:53:47;17.70;;;9.90;;
10088;SDS011;51898;49.864;8.550;2023-01-26T15:56:49;18.90;;;9.80;;
10088;SDS011;51898;49.864;8.550;2023-01-26T15:59:51;16.63;;;9.30;;
10088;SDS011;51898;49.864;8.550;2023-01-26T16:02:52;19.67;;;9.60;;
10088;SDS011;51898;49.864;8.550;2023-01-26T16:05:54;20.30;;;9.50;;
10088;SDS011;51898;49.864;8.550;2023-01-26T16:08:56;27.33;;;10.33;;
10088;SDS011;51898;49.864;8.550;2023-01-26T16:11:58;21.00;;;9.90;;
10088;SDS011;51898;49.864;8.550;2023-01-26T16:15:00;17.40;;;8.87;;
10088;SDS011;51898;49.864;8.550;2023-01-26T16:18:02;19.27;;;9.83;;
10088;SDS011;51898;49.864;8.550;2023-01-26T16:21:14;21.13;;;10.20;;
10088;SDS011;51898;49.864;8.550;2023-01-26T16:24:18;23.03;;;11.17;;
10088;SDS011;51898;49.864;8.550;2023-01-26T16:27:20;20.30;;;10.97;;
10088;SDS011;51898;49.864;8.550;2023-01-26T16:30:23;17.87;;;9.50;;
10088;SDS011;51898;49.864;8.550;2023-01-26T16:33:25;26.77;;;11.30;;
10088;SDS011;51898;49.864;8.550;2023-01-26T16:36:27;20.47;;;9.73;;
10088;SDS011;51898;49.864;8.550;2023-01-26T16:39:28;21.50;;;10.60;;
10088;SDS011;51898;49.864;8.550;2023-01-26T16:42:31;19.93;;;10.33;;
10088;SDS011;51898;49.864;8.550;2023-01-26T16:45:33;23.63;;;14.00;;
10088;SDS011;51898;49.864;8.550;2023-01-26T16:48:35;25.00;;;11.37;;
10088;SDS011;51898;49.864;8.550;2023-01-26T16:51:38;21.00;;;9.77;;
10088;SDS011;51898;49.864;8.550;2023-01-26T16:54:42;23.50;;;9.40;;
10088;SDS011;51898;49.864;8.550;2023-01-26T16:57:45;23.37;;;11.00;;
10088;SDS011;51898;49.864;8.550;2023-01-26T17:00:49;22.27;;;10.30;;
10088;SDS011;51898;49.864;8.550;2023-01-26T17:03:54;21.20;;;10.80;;
10088;SDS011;51898;49.864;8.550;2023-01-26T17:06:56;29.03;;;14.20;;
10088;SDS011;51898;49.864;8.550;2023-01-26T17:09:58;17.67;;;9.93;;
10088;SDS011;51898;49.864;8.550;2023-01-26T17:13:00;24.63;;;13.13;;
10088;SDS011;51898;49.864;8.550;2023-01-26T17:16:02;21.90;;;12.23;;
10088;SDS011;51898;49.864;8.550;2023-01-26T17:19:04;35.87;;;18.40;;
10088;SDS011;51898;49.864;8.550;2023-01-26T17:22:09;30.30;;;13.57;;
10088;SDS011;51898;49.864;8.550;2023-01-26T17:25:10;27.00;;;12.77;;
10088;SDS011;51898;49.864;8.550;2023-01-26T17:28:16;21.00;;;10.30;;
10088;SDS011;51898;49.864;8.550;2023-01-26T17:31:19;21.90;;;11.10;;
10088;SDS011;51898;49.864;8.550;2023-01-26T17:34:22;22.27;;;11.73;;
10088;SDS011;51898;49.864;8.550;2023-01-26T17:37:25;19.63;;;11.30;;
10088;SDS011;51898;49.864;8.550;2023-01-26T17:40:29;28.00;;;12.10;;
10088;SDS011;51898;49.864;8.550;2023-01-26T17:43:30;20.67;;;11.20;;
10088;SDS011;51898;49.864;8.550;2023-01-26T17:46:32;22.70;;;11.80;;
10088;SDS011;51898;49.864;8.550;2023-01-26T17:49:34;26.57;;;11.43;;
10088;SDS011;51898;49.864;8.550;2023-01-26T17:52:37;23.37;;;11.77;;
10088;SDS011;51898;49.864;8.550;2023-01-26T17:55:38;20.33;;;10.73;;
10088;SDS011;51898;49.864;8.550;2023-01-26T17:58:40;25.33;;;11.60;;
10088;SDS011;51898;49.864;8.550;2023-01-26T18:01:42;28.00;;;11.97;;
10088;SDS011;51898;49.864;8.550;2023-01-26T18:04:43;25.50;;;11.90;;
10088;SDS011;51898;49.864;8.550;2023-01-26T18:07:46;27.97;;;12.40;;
10088;SDS011;51898;49.864;8.550;2023-01-26T18:10:48;28.87;;;12.13;;
10088;SDS011;51898;49.864;8.550;2023-01-26T18:13:50;27.43;;;12.73;;
10088;SDS011;51898;49.864;8.550;2023-01-26T18:16:53;26.17;;;12.00;;
10088;SDS011;51898;49.864;8.550;2023-01-26T18:19:55;24.33;;;12.70;;
10088;SDS011;51898;49.864;8.550;2023-01-26T18:22:57;23.67;;;12.63;;
10088;SDS011;51898;49.864;8.550;2023-01-26T18:26:00;23.43;;;11.47;;
10088;SDS011;51898;49.864;8.550;2023-01-26T18:29:05;23.40;;;12.83;;
10088;SDS011;51898;49.864;8.550;2023-01-26T18:32:07;26.40;;;13.23;;
10088;SDS011;51898;49.864;8.550;2023-01-26T18:35:08;40.33;;;17.40;;
10088;SDS011;51898;49.864;8.550;2023-01-26T18:38:10;93.17;;;37.70;;
10088;SDS011;51898;49.864;8.550;2023-01-26T18:41:13;36.87;;;15.53;;
10088;SDS011;51898;49.864;8.550;2023-01-26T18:44:16;29.10;;;13.77;;
10088;SDS011;51898;49.864;8.550;2023-01-26T18:47:18;29.67;;;13.97;;
10088;SDS011;51898;49.864;8.550;2023-01-26T18:50:20;31.20;;;14.73;;
10088;SDS011;51898;49.864;8.550;2023-01-26T18:53:22;29.07;;;13.67;;
10088;SDS011;51898;49.864;8.550;2023-01-26T18:56:24;30.10;;;12.87;;
10088;SDS011;51898;49.864;8.550;2023-01-26T18:59:26;30.73;;;14.93;;
10088;SDS011;51898;49.864;8.550;2023-01-26T19:02:28;32.73;;;14.90;;
10088;SDS011;51898;49.864;8.550;2023-01-26T19:05:33;40.13;;;19.60;;
10088;SDS011;51898;49.864;8.550;2023-01-26T19:08:35;45.07;;;21.30;;
10088;SDS011;51898;49.864;8.550;2023-01-26T19:11:37;38.50;;;18.07;;
10088;SDS011;51898;49.864;8.550;2023-01-26T19:14:39;32.90;;;16.33;;
10088;SDS011;51898;49.864;8.550;2023-01-26T19:17:41;33.57;;;15.90;;